AirNav   Air Wisconsin Up To $57,000 Bonus
 
 686 users online  

SC47 Parker Field Airport
Simpsonville, South Carolina, USA

GOING TO SIMPSONVILLE?


FAA INFORMATION EFFECTIVE 03 NOVEMBER 2022

Location

FAA Identifier: SC47
Lat/Long: 34-45-41.0000N 082-09-41.0000W
34-45.683333N 082-09.683333W
34.7613889,-82.1613889
(estimated)
Elevation: 860 ft. / 262 m (estimated)
Variation: 05W (1995)
From city: 5 miles E of SIMPSONVILLE, SC
Time zone: UTC -5 (UTC -4 during Daylight Saving Time)
Zip code: 29681

Airport Operations

Airport use: Private use. Permission required prior to landing
Activation date: 01/1997
Control tower: no
ARTCC: ATLANTA CENTER
FSS: ANDERSON FLIGHT SERVICE STATION
Attendance: UNATNDD
Segmented circle: no
Lights: ACTVT LIRL RY 05/23 - 122.9.

Airport Communications

WX ASOS at GSP (9 nm N): 134.25 (864-879-0614)
WX AWOS-3 at GYH (11 nm W): 127.325 (864-277-5674)
WX ASOS at GMU (11 nm NW): 127.075 (864-239-0014)
WX AWOS-3 at SPA (14 nm NE): 133.925 (864-587-2529)
WX AWOS-3 at LUX (19 nm SE): 123.975 (864-682-3639)

Nearby radio navigation aids

VOR radial/distance  VOR name  Freq  Var
SPAr217/20.0SPARTANBURG VORTAC115.7002W
GRDr000/30.6GREENWOOD VORTAC115.5001W
ELWr056/37.0ELECTRIC CITY VORTAC108.6000E
SUGr174/39.1SUGARLOAF MOUNTAIN VORTAC112.2002W

 
NDB name  Hdg/Dist  Freq  Var  ID
JUDKY102/9.452105WGM --. --
DYANA077/14.533804WGY --. -.--
UNION COUNTY286/26.032606WUOT ..- --- -
BROAD RIVER161/34.237907WBRA -... .-. .-
ENOREE323/37.527807WEOE . --- .

Airport Services

Runway Information

Runway 5/23

Dimensions: 3200 x 100 ft. / 975 x 30 m
Surface: turf
Runway edge lights: non-standard
RY 05/23 NSTD LIRL: RY LGTS SPACED EVERY 200 FT W/LGTS AT THLD & 200 FT RED AND LGTS AT 400 FT FROM EACH THLD GREEN TO INDICATE DSPLCD THLDS.
RUNWAY 5  RUNWAY 23
Traffic pattern: leftleft
Displaced threshold: 400 ft.400 ft.
Obstructions: treestrees

Airport Ownership and Management from official FAA records

Ownership: Privately-owned
Owner: FOOTHILLS AERODROME, INC.
11 CRUISEAIR COURT
SIMPSONVILLE, SC 29681
Phone 864-967-9822
Manager: BILL MACINTOSH
131 STEWART ROAD
SIMPSONVILLE, SC 29681
Phone 864-967-9822
SECRETARY: BILL CLUTE - 864-478-7023

Airport Operational Statistics

Aircraft based on the field: 19
Single engine airplanes: 17
Multi engine airplanes: 1
Helicopters: 1
    

Additional Remarks

ULTRALIGHT TFC IN AREA & CROSSING FIELD BELOW TFC PAT ALT.
FOR CD CTC ATLANTA ARTCC AT 770-210-7692.

Instrument Procedures

There are no published instrument procedures at SC47.

Some nearby airports with instrument procedures:

KGSP - Greenville Spartanburg International Airport (9 nm N)
KGYH - Donaldson Field Airport (11 nm W)
KGMU - Greenville Downtown Airport (11 nm NW)
KSPA - Spartanburg Downtown Memorial Airport/Simpson Field (14 nm NE)
KLUX - Laurens County Airport (19 nm SE)
 
Loc | Ops | Rwys | IFR | FBO | Links
Com | Nav | Svcs | Stats | Notes
Area around SC47 (Parker Field Airport)
 
Road maps at: MapQuest Bing Google
 
Aerial photo
WARNING: Photo may not be current or correct
Aerial photo of SC47 (Parker Field Airport)
Do you have a better or more recent aerial photo of Parker Field Airport that you would like to share? If so, please send us your photo.

 
Sectional chart

 
Airport distance calculator
Flying to Parker Field Airport? Find the distance to fly.

From to SC47

Sunrise and sunset
Times for 27-Nov-2022
 Local
(UTC-5)
 Zulu
(UTC)
Morning civil twilight06:4811:48
Sunrise07:1512:15
Sunset17:1722:17
Evening civil twilight17:4522:45

Current date and time
Zulu (UTC)  27-Nov-2022 13:36:23
Local (UTC-5)  27-Nov-2022 08:36:23
 
METAR
KGSP 
9nm N 
271312Z 32006KT 3SM -RA BR FEW004 OVC008 10/09 A2979 RMK AO2 P0019 T01000089
KGYH 
11nm W 
271247Z 10009KT 1SM RABR OVC002 12/12 A2976
KGMU 
11nm NW 
271305Z 32007KT 3SM RA BR OVC004 11/10 A2979 RMK AO2 TSE1259 PRESRR P0003 T01110100
KLUX 
19nm SE 
271315Z AUTO 18016G22KT 5SM +RA OVC003 15/15 A2977 RMK AO2 P0003
KSPA 
20nm NE 
271315Z AUTO 00000KT 10SM -RA OVC004 10/09 A2976 RMK AO2 P0003
TAF
KGSP 
9nm N 
271136Z 2712/2812 05007KT 3SM SHRA BR OVC004 WS020/18035KT TEMPO 2712/2714 2SM SHRA BR FM271500 20006KT 4SM BR VCSH OVC006 WS020/20035KT FM271600 22012G25KT P6SM VCSH FEW030 SCT250 FM280600 23008G16KT P6SM FEW070
KGMU 
11nm NW 
271136Z 2712/2812 06006KT 3SM SHRA BR OVC004 WS020/17040KT TEMPO 2712/2715 2SM SHRA BR FM271500 21005KT 5SM BR VCSH OVC005 WS020/21035KT FM271600 23012G24KT P6SM VCSH FEW030 SCT250 FM280700 24007KT P6SM FEW070 FM281100 25005KT P6SM SKC
NOTAMs
Click for the latest NOTAMs
NOTAMs are issued by the DoD/FAA and will open in a separate window not controlled by AirNav.

 

 
 

Would you like to see your business listed on this page?

 If your business provides an interesting product or service to pilots, flight crews, aircraft, or users of the Parker Field Airport, you should consider listing it here.  To start the listing process, click on the button below
 
Add a business
 

Other Pages about Parker Field Airport

Update a link
 
Copyright © AirNav, LLC. All rights reserved. Privacy Policy  Contact